sensor_id;sensor_type;location;lat;lon;timestamp;pressure;altitude;pressure_sealevel;temperature;humidity
34205;BME280;20471;49.680;20.074;2022-09-27T00:01:06;96005.08;;;8.15;80.50
34205;BME280;20471;49.680;20.074;2022-09-27T00:03:36;95999.34;;;8.12;80.42
34205;BME280;20471;49.680;20.074;2022-09-27T00:08:42;95994.39;;;7.97;80.28
34205;BME280;20471;49.680;20.074;2022-09-27T00:11:29;95987.85;;;7.93;80.27
34205;BME280;20471;49.680;20.074;2022-09-27T00:14:01;95985.31;;;7.89;80.17
34205;BME280;20471;49.680;20.074;2022-09-27T00:16:31;95981.73;;;7.86;80.17
34205;BME280;20471;49.680;20.074;2022-09-27T00:19:01;95995.17;;;7.86;80.17
34205;BME280;20471;49.680;20.074;2022-09-27T00:21:30;95987.29;;;7.82;80.04
34205;BME280;20471;49.680;20.074;2022-09-27T00:23:58;95999.23;;;7.77;79.96
34205;BME280;20471;49.680;20.074;2022-09-27T00:26:25;96004.48;;;7.72;79.91
34205;BME280;20471;49.680;20.074;2022-09-27T00:28:52;96005.59;;;7.64;79.71
34205;BME280;20471;49.680;20.074;2022-09-27T00:31:21;96002.86;;;7.52;79.57
34205;BME280;20471;49.680;20.074;2022-09-27T00:33:55;95992.06;;;7.41;79.72
34205;BME280;20471;49.680;20.074;2022-09-27T00:36:25;95993.84;;;7.38;79.89
34205;BME280;20471;49.680;20.074;2022-09-27T00:38:54;95981.72;;;7.35;79.93
34205;BME280;20471;49.680;20.074;2022-09-27T00:49:56;95973.83;;;7.22;79.80
34205;BME280;20471;49.680;20.074;2022-09-27T00:52:42;95964.88;;;7.19;79.98
34205;BME280;20471;49.680;20.074;2022-09-27T00:55:17;95965.09;;;7.17;79.90
34205;BME280;20471;49.680;20.074;2022-09-27T00:57:46;95964.20;;;7.14;79.86
34205;BME280;20471;49.680;20.074;2022-09-27T01:00:15;95966.38;;;7.06;79.69
34205;BME280;20471;49.680;20.074;2022-09-27T01:02:45;95968.45;;;7.04;80.00
34205;BME280;20471;49.680;20.074;2022-09-27T01:05:17;95958.33;;;7.06;80.18
34205;BME280;20471;49.680;20.074;2022-09-27T01:07:45;95953.86;;;7.09;80.21
34205;BME280;20471;49.680;20.074;2022-09-27T01:10:13;95949.75;;;7.06;80.13
34205;BME280;20471;49.680;20.074;2022-09-27T01:12:47;95941.92;;;7.05;80.21
34205;BME280;20471;49.680;20.074;2022-09-27T01:15:33;95937.60;;;7.04;80.23
34205;BME280;20471;49.680;20.074;2022-09-27T01:18:16;95929.64;;;6.97;80.44
34205;BME280;20471;49.680;20.074;2022-09-27T01:27:00;95927.78;;;6.98;80.91
34205;BME280;20471;49.680;20.074;2022-09-27T01:35:05;95921.67;;;7.00;81.26
34205;BME280;20471;49.680;20.074;2022-09-27T01:37:43;95928.43;;;7.02;81.27
34205;BME280;20471;49.680;20.074;2022-09-27T01:43:11;95916.06;;;7.01;81.25
34205;BME280;20471;49.680;20.074;2022-09-27T01:45:55;95911.77;;;7.00;81.12
34205;BME280;20471;49.680;20.074;2022-09-27T01:48:30;95927.56;;;6.99;81.01
34205;BME280;20471;49.680;20.074;2022-09-27T01:51:19;95926.14;;;6.97;80.89
34205;BME280;20471;49.680;20.074;2022-09-27T01:53:52;95923.82;;;6.91;80.81
34205;BME280;20471;49.680;20.074;2022-09-27T01:56:25;95923.47;;;6.88;80.75
34205;BME280;20471;49.680;20.074;2022-09-27T01:59:11;95920.48;;;6.86;80.68
34205;BME280;20471;49.680;20.074;2022-09-27T02:01:47;95921.45;;;6.83;80.53
34205;BME280;20471;49.680;20.074;2022-09-27T02:04:19;95913.32;;;6.80;80.63
34205;BME280;20471;49.680;20.074;2022-09-27T02:06:53;95912.58;;;6.82;80.64
34205;BME280;20471;49.680;20.074;2022-09-27T02:09:26;95910.34;;;6.79;80.59
34205;BME280;20471;49.680;20.074;2022-09-27T02:12:07;95906.19;;;6.74;80.53
34205;BME280;20471;49.680;20.074;2022-09-27T02:17:30;95905.94;;;6.67;80.71
34205;BME280;20471;49.680;20.074;2022-09-27T02:20:09;95909.88;;;6.64;80.74
34205;BME280;20471;49.680;20.074;2022-09-27T02:22:56;95904.52;;;6.55;80.79
34205;BME280;20471;49.680;20.074;2022-09-27T02:25:42;95902.66;;;6.56;81.02
34205;BME280;20471;49.680;20.074;2022-09-27T02:30:46;95890.46;;;6.60;81.16
34205;BME280;20471;49.680;20.074;2022-09-27T02:33:13;95884.06;;;6.61;81.21
34205;BME280;20471;49.680;20.074;2022-09-27T02:35:39;95879.52;;;6.61;81.21
34205;BME280;20471;49.680;20.074;2022-09-27T02:38:06;95872.88;;;6.55;81.16
34205;BME280;20471;49.680;20.074;2022-09-27T02:40:35;95867.38;;;6.49;81.30
34205;BME280;20471;49.680;20.074;2022-09-27T02:43:05;95867.16;;;6.51;81.42
34205;BME280;20471;49.680;20.074;2022-09-27T02:48:38;95871.53;;;6.55;81.57
34205;BME280;20471;49.680;20.074;2022-09-27T02:53:58;95866.34;;;6.50;81.64
34205;BME280;20471;49.680;20.074;2022-09-27T02:56:37;95874.00;;;6.47;81.69
34205;BME280;20471;49.680;20.074;2022-09-27T03:05:04;95878.16;;;6.34;81.97
34205;BME280;20471;49.680;20.074;2022-09-27T03:07:34;95865.71;;;6.30;81.98
34205;BME280;20471;49.680;20.074;2022-09-27T03:10:03;95868.91;;;6.30;82.02
34205;BME280;20471;49.680;20.074;2022-09-27T03:12:31;95878.37;;;6.32;82.10
34205;BME280;20471;49.680;20.074;2022-09-27T03:14:59;95873.61;;;6.34;82.09
34205;BME280;20471;49.680;20.074;2022-09-27T03:17:26;95868.04;;;6.36;82.05
34205;BME280;20471;49.680;20.074;2022-09-27T03:19:52;95869.46;;;6.38;82.01
34205;BME280;20471;49.680;20.074;2022-09-27T03:22:19;95872.71;;;6.40;81.93
34205;BME280;20471;49.680;20.074;2022-09-27T03:24:46;95872.71;;;6.40;81.83
34205;BME280;20471;49.680;20.074;2022-09-27T03:27:14;95877.85;;;6.42;81.81
34205;BME280;20471;49.680;20.074;2022-09-27T03:29:40;95878.37;;;6.41;81.70
34205;BME280;20471;49.680;20.074;2022-09-27T03:32:07;95871.92;;;6.40;81.71
34205;BME280;20471;49.680;20.074;2022-09-27T03:34:34;95863.50;;;6.36;81.64
34205;BME280;20471;49.680;20.074;2022-09-27T03:37:00;95854.03;;;6.34;81.72
34205;BME280;20471;49.680;20.074;2022-09-27T03:39:27;95855.98;;;6.36;81.73
34205;BME280;20471;49.680;20.074;2022-09-27T03:41:54;95855.98;;;6.36;81.74
34205;BME280;20471;49.680;20.074;2022-09-27T03:44:21;95857.75;;;6.33;81.73
34205;BME280;20471;49.680;20.074;2022-09-27T03:46:48;95866.53;;;6.31;81.81
34205;BME280;20471;49.680;20.074;2022-09-27T03:49:15;95870.85;;;6.32;81.90
34205;BME280;20471;49.680;20.074;2022-09-27T03:51:42;95865.27;;;6.33;81.98
34205;BME280;20471;49.680;20.074;2022-09-27T03:54:09;95860.81;;;6.36;82.11
34205;BME280;20471;49.680;20.074;2022-09-27T03:56:36;95864.62;;;6.38;82.07
34205;BME280;20471;49.680;20.074;2022-09-27T03:59:02;95858.14;;;6.36;82.02
34205;BME280;20471;49.680;20.074;2022-09-27T04:01:29;95863.20;;;6.35;82.02
34205;BME280;20471;49.680;20.074;2022-09-27T04:03:56;95863.80;;;6.37;82.11
34205;BME280;20471;49.680;20.074;2022-09-27T04:06:23;95863.63;;;6.41;82.13
34205;BME280;20471;49.680;20.074;2022-09-27T04:08:50;95859.91;;;6.42;82.09
34205;BME280;20471;49.680;20.074;2022-09-27T04:11:16;95856.71;;;6.43;82.11
34205;BME280;20471;49.680;20.074;2022-09-27T04:13:43;95846.29;;;6.44;82.20
34205;BME280;20471;49.680;20.074;2022-09-27T04:16:10;95831.25;;;6.43;82.34
34205;BME280;20471;49.680;20.074;2022-09-27T04:18:36;95825.59;;;6.42;82.42
34205;BME280;20471;49.680;20.074;2022-09-27T04:21:03;95827.23;;;6.43;82.47
34205;BME280;20471;49.680;20.074;2022-09-27T04:23:30;95832.89;;;6.44;82.53
34205;BME280;20471;49.680;20.074;2022-09-27T04:25:56;95831.11;;;6.47;82.56
34205;BME280;20471;49.680;20.074;2022-09-27T04:28:23;95833.35;;;6.50;82.69
34205;BME280;20471;49.680;20.074;2022-09-27T04:30:50;95825.88;;;6.52;82.78
34205;BME280;20471;49.680;20.074;2022-09-27T04:33:17;95826.48;;;6.54;82.76
34205;BME280;20471;49.680;20.074;2022-09-27T04:35:44;95828.12;;;6.55;82.67
34205;BME280;20471;49.680;20.074;2022-09-27T04:38:29;95819.34;;;6.57;82.59
34205;BME280;20471;49.680;20.074;2022-09-27T04:40:56;95823.87;;;6.57;82.53
34205;BME280;20471;49.680;20.074;2022-09-27T04:43:23;95823.66;;;6.58;82.52
34205;BME280;20471;49.680;20.074;2022-09-27T04:45:50;95821.58;;;6.60;82.52
34205;BME280;20471;49.680;20.074;2022-09-27T04:48:16;95824.08;;;6.64;82.54
34205;BME280;20471;49.680;20.074;2022-09-27T04:50:43;95831.39;;;6.66;82.63
34205;BME280;20471;49.680;20.074;2022-09-27T04:55:46;95831.61;;;6.65;82.82
34205;BME280;20471;49.680;20.074;2022-09-27T04:58:14;95834.06;;;6.66;82.84
34205;BME280;20471;49.680;20.074;2022-09-27T05:00:42;95818.28;;;6.67;82.87
34205;BME280;20471;49.680;20.074;2022-09-27T05:03:08;95809.48;;;6.69;82.95
34205;BME280;20471;49.680;20.074;2022-09-27T05:05:35;95811.73;;;6.72;82.99
34205;BME280;20471;49.680;20.074;2022-09-27T05:08:02;95806.19;;;6.76;83.00
34205;BME280;20471;49.680;20.074;2022-09-27T05:10:28;95795.31;;;6.80;83.01
34205;BME280;20471;49.680;20.074;2022-09-27T05:12:55;95796.52;;;6.84;83.09
34205;BME280;20471;49.680;20.074;2022-09-27T05:15:21;95795.55;;;6.88;83.15
34205;BME280;20471;49.680;20.074;2022-09-27T05:17:50;95796.11;;;6.90;83.20
34205;BME280;20471;49.680;20.074;2022-09-27T05:20:17;95792.91;;;6.91;83.20
34205;BME280;20471;49.680;20.074;2022-09-27T05:22:44;95789.03;;;6.96;83.27
34205;BME280;20471;49.680;20.074;2022-09-27T05:25:11;95784.86;;;7.00;83.28
34205;BME280;20471;49.680;20.074;2022-09-27T05:27:38;95782.22;;;7.02;83.35
34205;BME280;20471;49.680;20.074;2022-09-27T05:30:06;95780.65;;;7.04;83.49
34205;BME280;20471;49.680;20.074;2022-09-27T05:32:34;95778.63;;;7.08;83.54
34205;BME280;20471;49.680;20.074;2022-09-27T05:35:00;95777.92;;;7.13;83.61
34205;BME280;20471;49.680;20.074;2022-09-27T05:37:28;95772.11;;;7.16;83.69
34205;BME280;20471;49.680;20.074;2022-09-27T05:39:56;95777.62;;;7.21;83.74
34205;BME280;20471;49.680;20.074;2022-09-27T05:42:23;95773.70;;;7.26;83.81
34205;BME280;20471;49.680;20.074;2022-09-27T05:44:50;95778.17;;;7.32;83.92
34205;BME280;20471;49.680;20.074;2022-09-27T05:47:17;95770.19;;;7.35;84.05
34205;BME280;20471;49.680;20.074;2022-09-27T05:49:43;95769.77;;;7.40;84.20
34205;BME280;20471;49.680;20.074;2022-09-27T05:52:10;95776.33;;;7.44;84.35
34205;BME280;20471;49.680;20.074;2022-09-27T05:54:36;95765.98;;;7.50;84.37
34205;BME280;20471;49.680;20.074;2022-09-27T05:57:04;95762.98;;;7.58;84.40
34205;BME280;20471;49.680;20.074;2022-09-27T05:59:31;95756.14;;;7.65;84.47
34205;BME280;20471;49.680;20.074;2022-09-27T06:01:58;95760.89;;;7.72;84.48
34205;BME280;20471;49.680;20.074;2022-09-27T06:04:24;95764.03;;;7.81;84.53
34205;BME280;20471;49.680;20.074;2022-09-27T06:06:51;95756.95;;;7.89;84.62
34205;BME280;20471;49.680;20.074;2022-09-27T06:09:18;95759.02;;;7.96;84.59
34205;BME280;20471;49.680;20.074;2022-09-27T06:11:44;95760.22;;;8.03;84.55
34205;BME280;20471;49.680;20.074;2022-09-27T06:14:12;95757.95;;;8.09;84.50
34205;BME280;20471;49.680;20.074;2022-09-27T06:16:39;95759.98;;;8.16;84.52
34205;BME280;20471;49.680;20.074;2022-09-27T06:19:06;95759.84;;;8.22;84.55
34205;BME280;20471;49.680;20.074;2022-09-27T06:21:32;95747.09;;;8.29;84.58
34205;BME280;20471;49.680;20.074;2022-09-27T06:23:59;95752.66;;;8.37;84.54
34205;BME280;20471;49.680;20.074;2022-09-27T06:26:26;95750.41;;;8.46;84.52
34205;BME280;20471;49.680;20.074;2022-09-27T06:28:53;95752.16;;;8.52;84.50
34205;BME280;20471;49.680;20.074;2022-09-27T06:31:20;95754.70;;;8.58;84.43
34205;BME280;20471;49.680;20.074;2022-09-27T06:33:48;95760.42;;;8.62;84.31
34205;BME280;20471;49.680;20.074;2022-09-27T06:36:15;95755.91;;;8.65;84.31
34205;BME280;20471;49.680;20.074;2022-09-27T06:38:42;95764.06;;;8.70;84.33
34205;BME280;20471;49.680;20.074;2022-09-27T06:41:10;95764.94;;;8.73;84.16
34205;BME280;20471;49.680;20.074;2022-09-27T06:43:38;95760.73;;;8.77;84.17
34205;BME280;20471;49.680;20.074;2022-09-27T06:46:05;95759.20;;;8.81;84.13
34205;BME280;20471;49.680;20.074;2022-09-27T06:48:32;95758.23;;;8.87;84.09
34205;BME280;20471;49.680;20.074;2022-09-27T06:50:59;95748.63;;;8.91;84.07
34205;BME280;20471;49.680;20.074;2022-09-27T06:53:26;95748.70;;;8.96;84.17
34205;BME280;20471;49.680;20.074;2022-09-27T06:55:59;95751.86;;;9.08;84.22
34205;BME280;20471;49.680;20.074;2022-09-27T06:58:29;95752.62;;;9.20;84.23
34205;BME280;20471;49.680;20.074;2022-09-27T07:01:14;95752.31;;;9.33;84.29
34205;BME280;20471;49.680;20.074;2022-09-27T07:03:42;95752.77;;;9.44;84.23
34205;BME280;20471;49.680;20.074;2022-09-27T07:06:14;95740.16;;;9.47;83.83
34205;BME280;20471;49.680;20.074;2022-09-27T07:08:51;95744.78;;;9.49;83.58
34205;BME280;20471;49.680;20.074;2022-09-27T07:11:19;95745.84;;;9.48;83.54
34205;BME280;20471;49.680;20.074;2022-09-27T07:13:48;95749.92;;;9.51;83.41
34205;BME280;20471;49.680;20.074;2022-09-27T07:16:15;95748.88;;;9.54;83.46
34205;BME280;20471;49.680;20.074;2022-09-27T07:18:42;95746.16;;;9.68;83.52
34205;BME280;20471;49.680;20.074;2022-09-27T07:21:09;95748.74;;;9.78;83.50
34205;BME280;20471;49.680;20.074;2022-09-27T07:23:37;95754.56;;;9.89;83.52
34205;BME280;20471;49.680;20.074;2022-09-27T07:26:04;95752.83;;;9.99;83.40
34205;BME280;20471;49.680;20.074;2022-09-27T07:28:34;95750.32;;;10.12;83.40
34205;BME280;20471;49.680;20.074;2022-09-27T07:31:01;95744.94;;;10.31;83.40
34205;BME280;20471;49.680;20.074;2022-09-27T07:33:29;95738.16;;;10.51;83.39
34205;BME280;20471;49.680;20.074;2022-09-27T07:35:56;95737.36;;;10.72;83.32
34205;BME280;20471;49.680;20.074;2022-09-27T07:38:23;95732.98;;;10.93;83.02
34205;BME280;20471;49.680;20.074;2022-09-27T07:40:50;95738.02;;;11.11;82.90
34205;BME280;20471;49.680;20.074;2022-09-27T07:43:17;95736.10;;;11.33;82.76
34205;BME280;20471;49.680;20.074;2022-09-27T07:45:44;95723.83;;;11.52;82.65
34205;BME280;20471;49.680;20.074;2022-09-27T07:48:14;95720.45;;;11.72;82.17
34205;BME280;20471;49.680;20.074;2022-09-27T07:50:41;95722.19;;;11.81;81.61
34205;BME280;20471;49.680;20.074;2022-09-27T07:53:08;95717.95;;;11.93;81.36
34205;BME280;20471;49.680;20.074;2022-09-27T07:55:36;95717.72;;;12.02;81.30
34205;BME280;20471;49.680;20.074;2022-09-27T07:58:07;95712.14;;;12.16;81.00
34205;BME280;20471;49.680;20.074;2022-09-27T08:00:37;95710.12;;;12.43;80.78
34205;BME280;20471;49.680;20.074;2022-09-27T08:05:42;95710.25;;;12.79;79.31
34205;BME280;20471;49.680;20.074;2022-09-27T08:08:10;95704.54;;;12.80;79.25
34205;BME280;20471;49.680;20.074;2022-09-27T08:10:37;95705.62;;;12.82;79.20
34205;BME280;20471;49.680;20.074;2022-09-27T08:13:05;95708.06;;;12.81;79.21
34205;BME280;20471;49.680;20.074;2022-09-27T08:15:33;95700.75;;;12.81;79.12
34205;BME280;20471;49.680;20.074;2022-09-27T08:18:06;95695.65;;;12.95;79.32
34205;BME280;20471;49.680;20.074;2022-09-27T08:20:34;95697.63;;;13.22;79.18
34205;BME280;20471;49.680;20.074;2022-09-27T08:23:01;95695.75;;;13.46;78.87
34205;BME280;20471;49.680;20.074;2022-09-27T08:25:29;95699.00;;;13.68;78.56
34205;BME280;20471;49.680;20.074;2022-09-27T08:27:59;95692.48;;;13.82;77.84
34205;BME280;20471;49.680;20.074;2022-09-27T08:30:28;95694.63;;;13.95;77.16
34205;BME280;20471;49.680;20.074;2022-09-27T08:32:57;95688.94;;;13.99;76.84
34205;BME280;20471;49.680;20.074;2022-09-27T08:35:26;95684.55;;;14.18;77.13
34205;BME280;20471;49.680;20.074;2022-09-27T08:37:58;95688.02;;;14.44;76.85
34205;BME280;20471;49.680;20.074;2022-09-27T08:40:37;95682.77;;;14.65;76.74
34205;BME280;20471;49.680;20.074;2022-09-27T08:43:05;95679.39;;;14.89;76.54
34205;BME280;20471;49.680;20.074;2022-09-27T08:45:42;95676.33;;;15.03;75.78
34205;BME280;20471;49.680;20.074;2022-09-27T08:48:27;95671.07;;;15.19;75.45
34205;BME280;20471;49.680;20.074;2022-09-27T08:50:54;95681.58;;;15.33;74.30
34205;BME280;20471;49.680;20.074;2022-09-27T08:53:25;95679.61;;;15.39;74.17
34205;BME280;20471;49.680;20.074;2022-09-27T08:55:56;95687.67;;;15.52;74.15
34205;BME280;20471;49.680;20.074;2022-09-27T08:58:29;95675.39;;;15.59;73.23
34205;BME280;20471;49.680;20.074;2022-09-27T09:03:35;95667.81;;;15.88;73.57
34205;BME280;20471;49.680;20.074;2022-09-27T09:09:25;95661.05;;;16.35;72.79
34205;BME280;20471;49.680;20.074;2022-09-27T09:21:22;95640.11;;;17.35;71.04
34205;BME280;20471;49.680;20.074;2022-09-27T09:24:16;95632.95;;;17.55;70.44
34205;BME280;20471;49.680;20.074;2022-09-27T09:30:23;95627.20;;;17.89;69.51
34205;BME280;20471;49.680;20.074;2022-09-27T09:35:34;95613.00;;;18.19;68.84
34205;BME280;20471;49.680;20.074;2022-09-27T09:40:46;95599.41;;;18.58;68.35
34205;BME280;20471;49.680;20.074;2022-09-27T09:43:32;95589.38;;;18.67;66.87
34205;BME280;20471;49.680;20.074;2022-09-27T09:46:10;95581.78;;;18.64;67.21
34205;BME280;20471;49.680;20.074;2022-09-27T09:48:47;95571.48;;;18.72;66.72
34205;BME280;20471;49.680;20.074;2022-09-27T09:51:31;95571.89;;;18.79;66.70
34205;BME280;20471;49.680;20.074;2022-09-27T09:54:19;95574.14;;;18.99;66.73
34205;BME280;20471;49.680;20.074;2022-09-27T09:57:16;95572.73;;;19.24;66.46
34205;BME280;20471;49.680;20.074;2022-09-27T09:59:49;95566.20;;;19.23;64.57
34205;BME280;20471;49.680;20.074;2022-09-27T10:02:36;95566.34;;;19.29;65.33
34205;BME280;20471;49.680;20.074;2022-09-27T10:05:05;95565.73;;;19.43;65.16
34205;BME280;20471;49.680;20.074;2022-09-27T10:07:35;95563.01;;;19.54;65.40
34205;BME280;20471;49.680;20.074;2022-09-27T10:10:05;95560.00;;;19.64;65.04
34205;BME280;20471;49.680;20.074;2022-09-27T10:12:34;95553.14;;;19.75;64.53
34205;BME280;20471;49.680;20.074;2022-09-27T10:15:04;95547.39;;;19.86;64.04
34205;BME280;20471;49.680;20.074;2022-09-27T10:17:40;95549.28;;;19.96;63.80
34205;BME280;20471;49.680;20.074;2022-09-27T10:23:12;95532.66;;;20.32;63.37
34205;BME280;20471;49.680;20.074;2022-09-27T10:25:49;95532.66;;;20.32;63.37
34205;BME280;20471;49.680;20.074;2022-09-27T10:28:38;95526.90;;;20.42;62.63
34205;BME280;20471;49.680;20.074;2022-09-27T10:31:13;95519.59;;;20.49;62.29
34205;BME280;20471;49.680;20.074;2022-09-27T10:33:58;95518.30;;;20.55;61.98
34205;BME280;20471;49.680;20.074;2022-09-27T10:36:32;95526.13;;;20.51;60.92
34205;BME280;20471;49.680;20.074;2022-09-27T10:39:02;95520.09;;;20.60;61.40
34205;BME280;20471;49.680;20.074;2022-09-27T10:41:37;95518.97;;;20.69;61.32
34205;BME280;20471;49.680;20.074;2022-09-27T10:46:47;95490.19;;;20.61;58.94
34205;BME280;20471;49.680;20.074;2022-09-27T10:49:23;95490.19;;;20.61;58.94
34205;BME280;20471;49.680;20.074;2022-09-27T10:52:02;95508.11;;;20.75;58.54
34205;BME280;20471;49.680;20.074;2022-09-27T10:54:38;95504.94;;;20.71;58.30
34205;BME280;20471;49.680;20.074;2022-09-27T10:59:46;95496.86;;;20.57;57.72
34205;BME280;20471;49.680;20.074;2022-09-27T11:02:20;95478.66;;;20.53;57.52
34205;BME280;20471;49.680;20.074;2022-09-27T11:05:08;95488.96;;;20.56;57.45
34205;BME280;20471;49.680;20.074;2022-09-27T11:07:50;95484.28;;;20.47;57.19
34205;BME280;20471;49.680;20.074;2022-09-27T11:13:12;95475.84;;;20.27;57.87
34205;BME280;20471;49.680;20.074;2022-09-27T11:22:21;95473.35;;;20.65;57.00
34205;BME280;20471;49.680;20.074;2022-09-27T11:34:15;95467.45;;;20.52;55.74
34205;BME280;20471;49.680;20.074;2022-09-27T11:40:12;95449.71;;;20.40;55.71
34205;BME280;20471;49.680;20.074;2022-09-27T11:51:28;95442.48;;;20.25;55.93
34205;BME280;20471;49.680;20.074;2022-09-27T11:57:18;95434.58;;;20.23;56.53
34205;BME280;20471;49.680;20.074;2022-09-27T12:11:49;95416.91;;;19.81;57.15
34205;BME280;20471;49.680;20.074;2022-09-27T12:16:51;95411.13;;;19.83;56.28
34205;BME280;20471;49.680;20.074;2022-09-27T12:22:03;95403.41;;;19.85;56.37
34205;BME280;20471;49.680;20.074;2022-09-27T12:24:32;95404.39;;;19.89;56.48
34205;BME280;20471;49.680;20.074;2022-09-27T12:27:03;95399.80;;;19.87;56.55
34205;BME280;20471;49.680;20.074;2022-09-27T12:29:42;95393.27;;;19.85;56.68
34205;BME280;20471;49.680;20.074;2022-09-27T12:35:14;95395.98;;;19.76;57.00
34205;BME280;20471;49.680;20.074;2022-09-27T12:40:37;95383.67;;;19.76;56.86
34205;BME280;20471;49.680;20.074;2022-09-27T12:43:16;95381.87;;;19.72;57.09
34205;BME280;20471;49.680;20.074;2022-09-27T12:45:52;95389.34;;;19.69;57.20
34205;BME280;20471;49.680;20.074;2022-09-27T12:51:11;95380.39;;;19.46;57.70
34205;BME280;20471;49.680;20.074;2022-09-27T12:59:43;95377.69;;;18.95;58.44
34205;BME280;20471;49.680;20.074;2022-09-27T13:13:39;95373.20;;;18.88;59.08
34205;BME280;20471;49.680;20.074;2022-09-27T13:16:06;95377.87;;;18.88;59.12
34205;BME280;20471;49.680;20.074;2022-09-27T13:38:32;95364.02;;;18.84;59.66
34205;BME280;20471;49.680;20.074;2022-09-27T13:44:06;95359.46;;;18.71;60.48
34205;BME280;20471;49.680;20.074;2022-09-27T13:46:34;95362.66;;;18.73;61.15
34205;BME280;20471;49.680;20.074;2022-09-27T13:49:10;95357.58;;;18.80;61.15
34205;BME280;20471;49.680;20.074;2022-09-27T13:54:36;95349.78;;;18.85;60.85
34205;BME280;20471;49.680;20.074;2022-09-27T14:00:19;95353.23;;;18.79;60.83
34205;BME280;20471;49.680;20.074;2022-09-27T14:03:00;95351.98;;;18.74;61.04
34205;BME280;20471;49.680;20.074;2022-09-27T14:05:33;95355.41;;;18.68;60.83
34205;BME280;20471;49.680;20.074;2022-09-27T14:08:13;95345.41;;;18.64;60.66
34205;BME280;20471;49.680;20.074;2022-09-27T14:10:51;95350.38;;;18.62;60.42
34205;BME280;20471;49.680;20.074;2022-09-27T14:13:18;95347.38;;;18.50;60.42
34205;BME280;20471;49.680;20.074;2022-09-27T14:15:46;95335.59;;;18.29;60.65
34205;BME280;20471;49.680;20.074;2022-09-27T14:18:13;95332.61;;;18.28;60.65
34205;BME280;20471;49.680;20.074;2022-09-27T14:20:42;95331.13;;;18.33;60.65
34205;BME280;20471;49.680;20.074;2022-09-27T14:23:22;95331.85;;;18.36;60.54
34205;BME280;20471;49.680;20.074;2022-09-27T14:25:52;95337.56;;;18.38;60.44
34205;BME280;20471;49.680;20.074;2022-09-27T14:28:25;95334.67;;;18.34;60.40
34205;BME280;20471;49.680;20.074;2022-09-27T14:31:14;95334.73;;;18.31;60.30
34205;BME280;20471;49.680;20.074;2022-09-27T14:33:49;95334.03;;;18.26;60.02
34205;BME280;20471;49.680;20.074;2022-09-27T14:36:25;95337.70;;;18.10;60.70
34205;BME280;20471;49.680;20.074;2022-09-27T14:39:15;95335.08;;;18.05;61.06
34205;BME280;20471;49.680;20.074;2022-09-27T14:41:47;95341.90;;;18.05;61.12
34205;BME280;20471;49.680;20.074;2022-09-27T14:44:18;95339.27;;;18.00;61.46
34205;BME280;20471;49.680;20.074;2022-09-27T14:46:46;95340.88;;;17.90;61.50
34205;BME280;20471;49.680;20.074;2022-09-27T14:49:23;95335.16;;;17.89;61.46
34205;BME280;20471;49.680;20.074;2022-09-27T14:51:54;95341.52;;;17.87;61.43
34205;BME280;20471;49.680;20.074;2022-09-27T14:54:24;95336.41;;;17.83;61.45
34205;BME280;20471;49.680;20.074;2022-09-27T14:56:54;95338.51;;;17.75;61.62
34205;BME280;20471;49.680;20.074;2022-09-27T14:59:28;95343.30;;;17.67;61.96
34205;BME280;20471;49.680;20.074;2022-09-27T15:01:58;95337.95;;;17.48;62.01
34205;BME280;20471;49.680;20.074;2022-09-27T15:04:30;95338.61;;;17.42;62.28
34205;BME280;20471;49.680;20.074;2022-09-27T15:06:57;95340.48;;;17.31;62.21
34205;BME280;20471;49.680;20.074;2022-09-27T15:09:27;95349.77;;;17.16;62.24
34205;BME280;20471;49.680;20.074;2022-09-27T15:11:57;95350.14;;;17.12;62.38
34205;BME280;20471;49.680;20.074;2022-09-27T15:14:26;95349.67;;;17.07;62.53
34205;BME280;20471;49.680;20.074;2022-09-27T15:16:55;95349.71;;;17.05;62.52
34205;BME280;20471;49.680;20.074;2022-09-27T15:19:26;95345.92;;;17.03;62.60
34205;BME280;20471;49.680;20.074;2022-09-27T15:21:55;95349.66;;;16.93;62.82
34205;BME280;20471;49.680;20.074;2022-09-27T15:24:43;95357.42;;;16.86;63.11
34205;BME280;20471;49.680;20.074;2022-09-27T15:27:17;95362.44;;;16.79;63.26
34205;BME280;20471;49.680;20.074;2022-09-27T15:29:54;95363.36;;;16.75;63.34
34205;BME280;20471;49.680;20.074;2022-09-27T15:32:26;95364.50;;;16.71;63.39
34205;BME280;20471;49.680;20.074;2022-09-27T15:34:56;95374.48;;;16.60;63.69
34205;BME280;20471;49.680;20.074;2022-09-27T15:37:35;95374.28;;;16.40;63.86
34205;BME280;20471;49.680;20.074;2022-09-27T15:43:04;95384.46;;;16.32;64.34
34205;BME280;20471;49.680;20.074;2022-09-27T15:45:33;95390.42;;;16.17;64.74
34205;BME280;20471;49.680;20.074;2022-09-27T15:48:14;95389.34;;;15.97;64.94
34205;BME280;20471;49.680;20.074;2022-09-27T15:50:42;95397.53;;;15.76;64.94
34205;BME280;20471;49.680;20.074;2022-09-27T15:53:10;95396.36;;;15.61;65.34
34205;BME280;20471;49.680;20.074;2022-09-27T15:55:41;95395.37;;;15.52;65.77
34205;BME280;20471;49.680;20.074;2022-09-27T15:58:18;95397.42;;;15.38;66.00
34205;BME280;20471;49.680;20.074;2022-09-27T16:00:51;95402.34;;;15.36;66.34
34205;BME280;20471;49.680;20.074;2022-09-27T16:03:22;95400.72;;;15.35;66.52
34205;BME280;20471;49.680;20.074;2022-09-27T16:05:52;95407.25;;;15.34;66.89
34205;BME280;20471;49.680;20.074;2022-09-27T16:08:22;95412.77;;;15.29;67.01
34205;BME280;20471;49.680;20.074;2022-09-27T16:10:54;95414.70;;;15.26;67.16
34205;BME280;20471;49.680;20.074;2022-09-27T16:13:24;95414.16;;;15.24;67.39
34205;BME280;20471;49.680;20.074;2022-09-27T16:15:52;95409.61;;;15.20;67.66
34205;BME280;20471;49.680;20.074;2022-09-27T16:18:19;95412.13;;;15.11;67.97
34205;BME280;20471;49.680;20.074;2022-09-27T16:20:47;95412.24;;;15.01;68.38
34205;BME280;20471;49.680;20.074;2022-09-27T16:23:14;95411.27;;;14.89;68.66
34205;BME280;20471;49.680;20.074;2022-09-27T16:25:40;95409.17;;;14.84;69.09